EXS25TO EGCC-LPPR
Flight info
| Callsign | EXS25TO |
|---|---|
| Flight time | 2h 11m |
| Altitude | 37000 |
| Route | ASMIM DCT NOKIN P17 BEPHE DCT OSSEP DCT ELNIF DCT ZESPE DCT KLAKI DCT ANNET DCT EKVEB DCT KORUL DCT ELTEP T328 ASPOR |
| Aircraft | B738/M-SDE2E3FGHIRWXY/LB1 |
Departure
| Time | 2026-05-05 20:06 |
|---|---|
| Airport | Manchester Airport (EGCC) |
Arrival
| Time | 2026-05-05 22:17 |
|---|---|
| Airport | Francisco de Sá Carneiro Airport (LPPR) |
| Time | Latitude | Longitude | Altitude | Speed | Heading |
|---|---|---|---|---|---|
| 2026-05-05 19:03 | 53.36763 | -2.28397 | 254 ft | 0 kts | 135° |
| 2026-05-05 19:43 | 53.36763 | -2.28398 | 254 ft | 1 kts | 135° |
| 2026-05-05 19:43 | 53.36779 | -2.28425 | 254 ft | 4 kts | 135° |
| 2026-05-05 19:43 | 53.36794 | -2.28450 | 254 ft | 4 kts | 168° |
| 2026-05-05 19:43 | 53.36810 | -2.28438 | 254 ft | 4 kts | 229° |
| 2026-05-05 19:44 | 53.36817 | -2.28424 | 254 ft | 4 kts | 224° |
| 2026-05-05 19:44 | 53.36798 | -2.28456 | 254 ft | 4 kts | 224° |
| 2026-05-05 19:44 | 53.36788 | -2.28472 | 254 ft | 0 kts | 224° |
| 2026-05-05 19:49 | 53.36787 | -2.28473 | 254 ft | 0 kts | 224° |
| 2026-05-05 19:49 | 53.36781 | -2.28484 | 254 ft | 1 kts | 224° |
| 2026-05-05 19:49 | 53.36766 | -2.28507 | 254 ft | 4 kts | 224° |
| 2026-05-05 19:50 | 53.36737 | -2.28556 | 254 ft | 7 kts | 225° |
| 2026-05-05 19:50 | 53.36704 | -2.28611 | 254 ft | 7 kts | 225° |
| 2026-05-05 19:50 | 53.36663 | -2.28679 | 254 ft | 8 kts | 225° |
| 2026-05-05 19:50 | 53.36639 | -2.28758 | 254 ft | 8 kts | 243° |
| 2026-05-05 19:51 | 53.36585 | -2.28763 | 254 ft | 10 kts | 141° |
| 2026-05-05 19:51 | 53.36528 | -2.28672 | 254 ft | 12 kts | 135° |
| 2026-05-05 19:51 | 53.36472 | -2.28577 | 254 ft | 10 kts | 134° |
| 2026-05-05 19:51 | 53.36427 | -2.28499 | 254 ft | 9 kts | 128° |
| 2026-05-05 19:52 | 53.36400 | -2.28396 | 254 ft | 10 kts | 113° |
| 2026-05-05 19:52 | 53.36355 | -2.28303 | 254 ft | 11 kts | 135° |
| 2026-05-05 19:52 | 53.36292 | -2.28196 | 254 ft | 14 kts | 134° |
| 2026-05-05 19:52 | 53.36217 | -2.28070 | 254 ft | 16 kts | 134° |
| 2026-05-05 19:53 | 53.36137 | -2.27949 | 254 ft | 15 kts | 142° |
| 2026-05-05 19:53 | 53.36057 | -2.27844 | 254 ft | 14 kts | 142° |
| 2026-05-05 19:53 | 53.35982 | -2.27750 | 254 ft | 13 kts | 151° |
| 2026-05-05 19:53 | 53.35894 | -2.27728 | 254 ft | 13 kts | 181° |
| 2026-05-05 19:54 | 53.35804 | -2.27739 | 250 ft | 15 kts | 186° |
| 2026-05-05 19:54 | 53.35692 | -2.27759 | 244 ft | 17 kts | 186° |
| 2026-05-05 19:54 | 53.35566 | -2.27781 | 237 ft | 18 kts | 193° |
| 2026-05-05 19:54 | 53.35485 | -2.27874 | 239 ft | 13 kts | 223° |
| 2026-05-05 19:55 | 53.35421 | -2.27979 | 239 ft | 13 kts | 223° |
| 2026-05-05 19:55 | 53.35356 | -2.28083 | 238 ft | 14 kts | 224° |
| 2026-05-05 19:55 | 53.35274 | -2.28218 | 231 ft | 19 kts | 226° |
| 2026-05-05 19:55 | 53.35190 | -2.28388 | 228 ft | 20 kts | 231° |
| 2026-05-05 19:56 | 53.35102 | -2.28570 | 227 ft | 20 kts | 232° |
| 2026-05-05 19:56 | 53.35029 | -2.28716 | 227 ft | 15 kts | 228° |
| 2026-05-05 19:56 | 53.34959 | -2.28838 | 225 ft | 14 kts | 226° |
| 2026-05-05 19:56 | 53.34895 | -2.28950 | 222 ft | 13 kts | 226° |
| 2026-05-05 19:57 | 53.34823 | -2.29080 | 217 ft | 16 kts | 228° |
| 2026-05-05 19:57 | 53.34751 | -2.29225 | 212 ft | 14 kts | 231° |
| 2026-05-05 19:57 | 53.34693 | -2.29319 | 210 ft | 8 kts | 209° |
| 2026-05-05 19:57 | 53.34678 | -2.29329 | 211 ft | 0 kts | 198° |
| 2026-05-05 20:04 | 53.34669 | -2.29333 | 210 ft | 4 kts | 197° |
| 2026-05-05 20:04 | 53.34628 | -2.29344 | 215 ft | 8 kts | 182° |
| 2026-05-05 20:04 | 53.34560 | -2.29310 | 219 ft | 13 kts | 144° |
| 2026-05-05 20:05 | 53.34570 | -2.29158 | 216 ft | 23 kts | 50° |
| 2026-05-05 20:05 | 53.34830 | -2.28621 | 229 ft | 93 kts | 51° |
| 2026-05-05 20:05 | 53.35353 | -2.27519 | 250 ft | 149 kts | 53° |
| 2026-05-05 20:05 | 53.36053 | -2.26029 | 694 ft | 172 kts | 51° |
| 2026-05-05 20:06 | 53.36835 | -2.24459 | 1615 ft | 174 kts | 51° |
| 2026-05-05 20:06 | 53.37618 | -2.22908 | 2423 ft | 180 kts | 52° |
| 2026-05-05 20:06 | 53.38514 | -2.21269 | 2596 ft | 203 kts | 38° |
| 2026-05-05 20:06 | 53.39947 | -2.20717 | 2806 ft | 229 kts | 353° |
| 2026-05-05 20:07 | 53.41366 | -2.22062 | 3194 ft | 247 kts | 310° |
| 2026-05-05 20:07 | 53.42120 | -2.24654 | 3710 ft | 256 kts | 291° |
| 2026-05-05 20:07 | 53.42810 | -2.27479 | 4223 ft | 265 kts | 295° |
| 2026-05-05 20:07 | 53.43580 | -2.30286 | 4904 ft | 261 kts | 296° |
| 2026-05-05 20:08 | 53.44390 | -2.33057 | 4979 ft | 268 kts | 297° |
| 2026-05-05 20:08 | 53.45222 | -2.35850 | 4987 ft | 267 kts | 297° |
| 2026-05-05 20:08 | 53.46061 | -2.38620 | 4987 ft | 265 kts | 297° |
| 2026-05-05 20:08 | 53.46847 | -2.41399 | 4988 ft | 265 kts | 287° |
| 2026-05-05 20:09 | 53.46936 | -2.44454 | 5009 ft | 264 kts | 261° |
| 2026-05-05 20:09 | 53.46593 | -2.47497 | 4996 ft | 266 kts | 259° |
| 2026-05-05 20:09 | 53.46242 | -2.50548 | 4996 ft | 267 kts | 259° |
| 2026-05-05 20:09 | 53.45896 | -2.53609 | 4994 ft | 267 kts | 259° |
| 2026-05-05 20:10 | 53.45554 | -2.56682 | 4991 ft | 268 kts | 260° |
| 2026-05-05 20:10 | 53.45213 | -2.59757 | 4978 ft | 269 kts | 260° |
| 2026-05-05 20:10 | 53.44826 | -2.62832 | 4980 ft | 270 kts | 251° |
| 2026-05-05 20:10 | 53.43792 | -2.65413 | 5001 ft | 270 kts | 219° |
| 2026-05-05 20:11 | 53.42162 | -2.66956 | 5001 ft | 270 kts | 201° |
| 2026-05-05 20:11 | 53.40404 | -2.68080 | 4994 ft | 271 kts | 199° |
| 2026-05-05 20:11 | 53.38625 | -2.69163 | 4992 ft | 273 kts | 199° |
| 2026-05-05 20:11 | 53.36838 | -2.70245 | 4993 ft | 273 kts | 199° |
| 2026-05-05 20:12 | 53.35050 | -2.71337 | 4987 ft | 273 kts | 199° |
| 2026-05-05 20:12 | 53.33267 | -2.72433 | 4990 ft | 272 kts | 200° |
| 2026-05-05 20:12 | 53.31493 | -2.73530 | 4983 ft | 272 kts | 200° |
| 2026-05-05 20:12 | 53.29722 | -2.74629 | 4989 ft | 271 kts | 200° |
| 2026-05-05 20:13 | 53.27956 | -2.75727 | 4990 ft | 271 kts | 200° |
| 2026-05-05 20:13 | 53.26175 | -2.76834 | 5297 ft | 274 kts | 200° |
| 2026-05-05 20:13 | 53.24390 | -2.77945 | 6108 ft | 273 kts | 200° |
| 2026-05-05 20:13 | 53.22615 | -2.79049 | 6908 ft | 273 kts | 200° |
| 2026-05-05 20:14 | 53.20818 | -2.80168 | 7494 ft | 280 kts | 200° |
| 2026-05-05 20:14 | 53.18986 | -2.81306 | 8206 ft | 282 kts | 201° |
| 2026-05-05 20:14 | 53.17116 | -2.82468 | 8756 ft | 290 kts | 202° |
| 2026-05-05 20:14 | 53.15238 | -2.83634 | 9589 ft | 288 kts | 202° |
| 2026-05-05 20:15 | 53.13340 | -2.84810 | 10198 ft | 294 kts | 202° |
| 2026-05-05 20:15 | 53.11369 | -2.86033 | 10439 ft | 313 kts | 202° |
| 2026-05-05 20:15 | 53.09259 | -2.87307 | 10606 ft | 333 kts | 198° |
| 2026-05-05 20:15 | 53.06916 | -2.87952 | 10936 ft | 349 kts | 182° |
| 2026-05-05 20:16 | 53.04480 | -2.87607 | 11537 ft | 354 kts | 172° |
| 2026-05-05 20:16 | 53.02077 | -2.86942 | 12217 ft | 356 kts | 171° |
| 2026-05-05 20:16 | 52.99629 | -2.86225 | 12905 ft | 359 kts | 171° |
| 2026-05-05 20:16 | 52.97123 | -2.85500 | 13581 ft | 362 kts | 171° |
| 2026-05-05 20:17 | 52.94664 | -2.84808 | 14198 ft | 366 kts | 172° |
| 2026-05-05 20:17 | 52.92143 | -2.84115 | 14846 ft | 368 kts | 172° |
| 2026-05-05 20:17 | 52.89607 | -2.83428 | 15517 ft | 370 kts | 172° |
| 2026-05-05 20:17 | 52.87055 | -2.82741 | 16175 ft | 373 kts | 172° |
| 2026-05-05 20:18 | 52.84453 | -2.82045 | 16829 ft | 376 kts | 172° |
| 2026-05-05 20:18 | 52.81893 | -2.81361 | 17457 ft | 379 kts | 173° |
| 2026-05-05 20:18 | 52.79240 | -2.80651 | 18092 ft | 382 kts | 172° |
| 2026-05-05 20:18 | 52.76647 | -2.79941 | 18658 ft | 385 kts | 172° |
| 2026-05-05 20:19 | 52.73994 | -2.79209 | 19211 ft | 388 kts | 172° |
| 2026-05-05 20:19 | 52.71325 | -2.78475 | 19760 ft | 390 kts | 172° |
| 2026-05-05 20:19 | 52.68640 | -2.77748 | 20308 ft | 393 kts | 173° |
| 2026-05-05 20:19 | 52.65932 | -2.77038 | 20828 ft | 395 kts | 173° |
| 2026-05-05 20:20 | 52.63205 | -2.76325 | 21351 ft | 398 kts | 173° |
| 2026-05-05 20:20 | 52.60446 | -2.75799 | 21858 ft | 400 kts | 181° |
| 2026-05-05 20:20 | 52.57665 | -2.75986 | 22369 ft | 401 kts | 186° |
| 2026-05-05 20:20 | 52.54874 | -2.76312 | 22881 ft | 403 kts | 186° |
| 2026-05-05 20:21 | 52.52061 | -2.76599 | 23364 ft | 407 kts | 185° |
| 2026-05-05 20:21 | 52.49226 | -2.76857 | 23803 ft | 409 kts | 185° |
| 2026-05-05 20:21 | 52.46374 | -2.77105 | 24220 ft | 411 kts | 185° |
| 2026-05-05 20:21 | 52.43507 | -2.77349 | 24619 ft | 414 kts | 185° |
| 2026-05-05 20:22 | 52.40627 | -2.77595 | 24986 ft | 417 kts | 185° |
| 2026-05-05 20:22 | 52.37717 | -2.77843 | 25353 ft | 420 kts | 185° |
| 2026-05-05 20:22 | 52.34791 | -2.78094 | 25725 ft | 422 kts | 184° |
| 2026-05-05 20:22 | 52.31846 | -2.78347 | 26091 ft | 425 kts | 185° |
| 2026-05-05 20:23 | 52.28882 | -2.78601 | 26444 ft | 428 kts | 185° |
| 2026-05-05 20:23 | 52.25902 | -2.78857 | 26801 ft | 430 kts | 184° |
| 2026-05-05 20:23 | 52.22913 | -2.79114 | 27192 ft | 431 kts | 184° |
| 2026-05-05 20:23 | 52.19911 | -2.79371 | 27574 ft | 433 kts | 184° |
| 2026-05-05 20:24 | 52.16893 | -2.79629 | 27875 ft | 436 kts | 184° |
| 2026-05-05 20:24 | 52.13852 | -2.79889 | 28178 ft | 439 kts | 184° |
| 2026-05-05 20:24 | 52.10792 | -2.80150 | 28493 ft | 441 kts | 184° |
| 2026-05-05 20:24 | 52.07716 | -2.80411 | 28812 ft | 444 kts | 184° |
| 2026-05-05 20:25 | 52.04625 | -2.80674 | 29111 ft | 446 kts | 184° |
| 2026-05-05 20:25 | 52.01517 | -2.80939 | 29409 ft | 448 kts | 184° |
| 2026-05-05 20:25 | 51.98410 | -2.81204 | 29924 ft | 445 kts | 184° |
| 2026-05-05 20:25 | 51.95327 | -2.81466 | 30357 ft | 443 kts | 184° |
| 2026-05-05 20:26 | 51.92248 | -2.81727 | 30633 ft | 445 kts | 185° |
| 2026-05-05 20:26 | 51.89151 | -2.81991 | 30875 ft | 446 kts | 184° |
| 2026-05-05 20:26 | 51.86047 | -2.82255 | 31172 ft | 446 kts | 185° |
| 2026-05-05 20:26 | 51.82959 | -2.82715 | 31513 ft | 445 kts | 188° |
| 2026-05-05 20:27 | 51.79892 | -2.83355 | 31820 ft | 445 kts | 189° |
| 2026-05-05 20:27 | 51.76826 | -2.84053 | 32082 ft | 445 kts | 189° |
| 2026-05-05 20:27 | 51.73797 | -2.84744 | 32768 ft | 435 kts | 189° |
| 2026-05-05 20:27 | 51.70846 | -2.85400 | 33135 ft | 434 kts | 189° |
| 2026-05-05 20:28 | 51.67797 | -2.86062 | 33235 ft | 439 kts | 189° |
| 2026-05-05 20:28 | 51.64758 | -2.86708 | 33397 ft | 441 kts | 188° |
| 2026-05-05 20:28 | 51.61724 | -2.87348 | 33779 ft | 438 kts | 189° |
| 2026-05-05 20:28 | 51.58701 | -2.87983 | 34056 ft | 438 kts | 189° |
| 2026-05-05 20:29 | 51.55674 | -2.88620 | 34208 ft | 440 kts | 188° |
| 2026-05-05 20:29 | 51.52629 | -2.89262 | 34311 ft | 443 kts | 188° |
| 2026-05-05 20:29 | 51.49569 | -2.89910 | 34485 ft | 444 kts | 189° |
| 2026-05-05 20:29 | 51.46511 | -2.90559 | 34724 ft | 443 kts | 188° |
| 2026-05-05 20:30 | 51.43460 | -2.91205 | 34948 ft | 442 kts | 189° |
| 2026-05-05 20:30 | 51.40410 | -2.91851 | 35155 ft | 442 kts | 188° |
| 2026-05-05 20:30 | 51.38393 | -2.92278 | 35273 ft | 442 kts | 188° |
| 2026-05-05 20:30 | 51.35341 | -2.92923 | 35479 ft | 442 kts | 188° |
| 2026-05-05 20:31 | 51.32290 | -2.93566 | 35687 ft | 442 kts | 188° |
| 2026-05-05 20:31 | 51.29239 | -2.94208 | 35890 ft | 441 kts | 188° |
| 2026-05-05 20:31 | 51.25222 | -2.95052 | 35973 ft | 440 kts | 188° |
| 2026-05-05 20:32 | 51.20138 | -2.96118 | 35992 ft | 441 kts | 188° |
| 2026-05-05 20:32 | 51.14046 | -2.97392 | 35992 ft | 442 kts | 188° |
| 2026-05-05 20:33 | 51.07942 | -2.98665 | 35991 ft | 443 kts | 188° |
| 2026-05-05 20:33 | 51.01825 | -2.99937 | 35986 ft | 444 kts | 188° |
| 2026-05-05 20:34 | 50.95696 | -3.01209 | 35982 ft | 444 kts | 188° |
| 2026-05-05 20:34 | 50.89567 | -3.02477 | 35986 ft | 444 kts | 188° |
| 2026-05-05 20:35 | 50.83443 | -3.03741 | 35981 ft | 444 kts | 188° |
| 2026-05-05 20:35 | 50.77329 | -3.04999 | 35983 ft | 443 kts | 188° |
| 2026-05-05 20:36 | 50.71230 | -3.06251 | 35984 ft | 441 kts | 188° |
| 2026-05-05 20:36 | 50.65190 | -3.07488 | 35984 ft | 440 kts | 188° |
| 2026-05-05 20:37 | 50.59128 | -3.08726 | 35978 ft | 438 kts | 188° |
| 2026-05-05 20:37 | 50.53094 | -3.09955 | 35975 ft | 437 kts | 188° |
| 2026-05-05 20:38 | 50.47074 | -3.11179 | 35967 ft | 436 kts | 188° |
| 2026-05-05 20:38 | 50.41074 | -3.12415 | 35974 ft | 434 kts | 191° |
| 2026-05-05 20:39 | 50.35432 | -3.15544 | 35966 ft | 431 kts | 209° |
| 2026-05-05 20:39 | 50.30574 | -3.21005 | 35972 ft | 431 kts | 218° |
| 2026-05-05 20:40 | 50.25884 | -3.26859 | 35971 ft | 432 kts | 219° |
| 2026-05-05 20:40 | 50.21163 | -3.32698 | 35973 ft | 434 kts | 218° |
| 2026-05-05 20:41 | 50.16406 | -3.38515 | 35983 ft | 436 kts | 218° |
| 2026-05-05 20:41 | 50.11610 | -3.44346 | 35974 ft | 438 kts | 218° |
| 2026-05-05 20:42 | 50.06788 | -3.50187 | 35978 ft | 440 kts | 218° |
| 2026-05-05 20:42 | 50.01950 | -3.56034 | 35967 ft | 441 kts | 218° |
| 2026-05-05 20:43 | 49.97104 | -3.61878 | 35973 ft | 441 kts | 218° |
| 2026-05-05 20:43 | 49.92257 | -3.67707 | 35972 ft | 440 kts | 218° |
| 2026-05-05 20:44 | 49.87414 | -3.73519 | 35980 ft | 440 kts | 218° |
| 2026-05-05 20:44 | 49.82574 | -3.79310 | 35978 ft | 439 kts | 218° |
| 2026-05-05 20:45 | 49.75327 | -3.87954 | 35978 ft | 438 kts | 218° |
| 2026-05-05 20:45 | 49.70498 | -3.93698 | 35978 ft | 438 kts | 218° |
| 2026-05-05 20:46 | 49.65641 | -3.99369 | 35983 ft | 438 kts | 213° |
| 2026-05-05 20:46 | 49.60171 | -4.03433 | 35994 ft | 437 kts | 202° |
| 2026-05-05 20:47 | 49.54513 | -4.06924 | 35986 ft | 438 kts | 202° |
| 2026-05-05 20:47 | 49.48847 | -4.10437 | 35992 ft | 440 kts | 202° |
| 2026-05-05 20:48 | 49.43171 | -4.13998 | 35993 ft | 441 kts | 202° |
| 2026-05-05 20:48 | 49.37479 | -4.17583 | 35993 ft | 443 kts | 202° |
| 2026-05-05 20:49 | 49.31774 | -4.21173 | 35995 ft | 444 kts | 202° |
| 2026-05-05 20:49 | 49.26082 | -4.24745 | 35992 ft | 446 kts | 202° |
| 2026-05-05 20:50 | 49.20336 | -4.28341 | 35991 ft | 447 kts | 202° |
| 2026-05-05 20:50 | 49.14577 | -4.31935 | 35997 ft | 447 kts | 202° |
| 2026-05-05 20:51 | 49.08811 | -4.35525 | 36003 ft | 448 kts | 202° |
| 2026-05-05 20:51 | 49.03039 | -4.39110 | 36006 ft | 448 kts | 202° |
| 2026-05-05 20:52 | 48.97262 | -4.42688 | 35988 ft | 448 kts | 202° |
| 2026-05-05 20:52 | 48.91481 | -4.46260 | 35996 ft | 449 kts | 202° |
| 2026-05-05 20:53 | 48.85703 | -4.49821 | 36015 ft | 448 kts | 202° |
| 2026-05-05 20:53 | 48.79914 | -4.53380 | 36007 ft | 449 kts | 202° |
| 2026-05-05 20:54 | 48.74125 | -4.56931 | 35995 ft | 449 kts | 202° |
| 2026-05-05 20:54 | 48.68334 | -4.60473 | 36010 ft | 449 kts | 202° |
| 2026-05-05 20:55 | 48.62544 | -4.64006 | 36000 ft | 448 kts | 202° |
| 2026-05-05 20:55 | 48.56755 | -4.67530 | 35997 ft | 449 kts | 202° |
| 2026-05-05 20:56 | 48.50965 | -4.71045 | 36005 ft | 449 kts | 202° |
| 2026-05-05 20:56 | 48.45173 | -4.74554 | 36025 ft | 449 kts | 202° |
| 2026-05-05 20:57 | 48.39405 | -4.78040 | 36004 ft | 450 kts | 202° |
| 2026-05-05 20:57 | 48.33590 | -4.81544 | 36007 ft | 451 kts | 202° |
| 2026-05-05 20:58 | 48.27761 | -4.85049 | 36014 ft | 451 kts | 202° |
| 2026-05-05 20:58 | 48.21921 | -4.88552 | 36011 ft | 452 kts | 202° |
| 2026-05-05 20:59 | 48.16070 | -4.92052 | 36006 ft | 453 kts | 202° |
| 2026-05-05 20:59 | 48.10209 | -4.95550 | 36015 ft | 454 kts | 202° |
| 2026-05-05 21:00 | 48.04342 | -4.99043 | 36008 ft | 454 kts | 202° |
| 2026-05-05 21:00 | 47.98465 | -5.02533 | 36003 ft | 455 kts | 202° |
| 2026-05-05 21:01 | 47.92583 | -5.06018 | 36011 ft | 455 kts | 202° |
| 2026-05-05 21:01 | 47.86694 | -5.09499 | 36007 ft | 455 kts | 202° |
| 2026-05-05 21:02 | 47.80797 | -5.12975 | 36003 ft | 456 kts | 202° |
| 2026-05-05 21:02 | 47.74893 | -5.16447 | 36003 ft | 457 kts | 202° |
| 2026-05-05 21:03 | 47.68980 | -5.19916 | 36011 ft | 457 kts | 202° |
| 2026-05-05 21:03 | 47.63059 | -5.23381 | 36015 ft | 458 kts | 201° |
| 2026-05-05 21:04 | 47.57131 | -5.26842 | 36001 ft | 459 kts | 201° |
| 2026-05-05 21:04 | 47.51201 | -5.30295 | 36009 ft | 459 kts | 201° |
| 2026-05-05 21:05 | 47.45257 | -5.33749 | 36017 ft | 459 kts | 201° |
| 2026-05-05 21:05 | 47.39307 | -5.37197 | 36004 ft | 460 kts | 201° |
| 2026-05-05 21:06 | 47.33351 | -5.40640 | 35999 ft | 460 kts | 201° |
| 2026-05-05 21:06 | 47.27386 | -5.44081 | 36008 ft | 460 kts | 201° |
| 2026-05-05 21:07 | 47.21410 | -5.47519 | 36020 ft | 461 kts | 201° |
| 2026-05-05 21:07 | 47.15467 | -5.50930 | 36001 ft | 462 kts | 201° |
| 2026-05-05 21:08 | 47.09482 | -5.54357 | 36009 ft | 462 kts | 201° |
| 2026-05-05 21:08 | 47.03484 | -5.57783 | 36016 ft | 462 kts | 201° |
| 2026-05-05 21:09 | 46.97482 | -5.61203 | 36010 ft | 463 kts | 201° |
| 2026-05-05 21:09 | 46.91479 | -5.64615 | 35998 ft | 463 kts | 201° |
| 2026-05-05 21:10 | 46.85475 | -5.68020 | 36009 ft | 462 kts | 201° |
| 2026-05-05 21:10 | 46.79473 | -5.71416 | 36005 ft | 462 kts | 201° |
| 2026-05-05 21:11 | 46.73475 | -5.74802 | 36009 ft | 462 kts | 201° |
| 2026-05-05 21:11 | 46.67480 | -5.78178 | 36015 ft | 462 kts | 201° |
| 2026-05-05 21:12 | 46.61494 | -5.81541 | 36008 ft | 461 kts | 201° |
| 2026-05-05 21:12 | 46.55553 | -5.85098 | 36013 ft | 461 kts | 204° |
| 2026-05-05 21:13 | 46.49710 | -5.88914 | 36014 ft | 461 kts | 205° |
| 2026-05-05 21:13 | 46.43860 | -5.92729 | 36018 ft | 461 kts | 204° |
| 2026-05-05 21:14 | 46.37996 | -5.96497 | 36025 ft | 461 kts | 204° |
| 2026-05-05 21:14 | 46.32122 | -6.00238 | 36018 ft | 461 kts | 204° |
| 2026-05-05 21:15 | 46.26284 | -6.03942 | 36012 ft | 461 kts | 204° |
| 2026-05-05 21:15 | 46.20407 | -6.07662 | 36035 ft | 461 kts | 204° |
| 2026-05-05 21:16 | 46.14531 | -6.11375 | 36023 ft | 461 kts | 204° |
| 2026-05-05 21:16 | 46.08647 | -6.15085 | 36021 ft | 462 kts | 204° |
| 2026-05-05 21:17 | 46.02759 | -6.18788 | 36022 ft | 462 kts | 204° |
| 2026-05-05 21:17 | 45.96866 | -6.22486 | 36042 ft | 462 kts | 204° |
| 2026-05-05 21:18 | 45.90974 | -6.26175 | 36021 ft | 462 kts | 204° |
| 2026-05-05 21:18 | 45.86043 | -6.29255 | 36025 ft | 462 kts | 204° |
| 2026-05-05 21:19 | 45.80192 | -6.32902 | 36039 ft | 461 kts | 204° |
| 2026-05-05 21:19 | 45.74304 | -6.36564 | 36023 ft | 461 kts | 204° |
| 2026-05-05 21:20 | 45.68418 | -6.40217 | 36041 ft | 461 kts | 204° |
| 2026-05-05 21:20 | 45.62533 | -6.43860 | 36040 ft | 461 kts | 204° |
| 2026-05-05 21:21 | 45.56651 | -6.47493 | 36042 ft | 460 kts | 204° |
| 2026-05-05 21:21 | 45.50771 | -6.51117 | 36045 ft | 460 kts | 204° |
| 2026-05-05 21:22 | 45.44900 | -6.54726 | 36038 ft | 460 kts | 204° |
| 2026-05-05 21:22 | 45.39026 | -6.58330 | 36041 ft | 460 kts | 204° |
| 2026-05-05 21:23 | 45.33155 | -6.61923 | 36036 ft | 459 kts | 205° |
| 2026-05-05 21:23 | 45.27289 | -6.65506 | 36049 ft | 459 kts | 205° |
| 2026-05-05 21:24 | 45.21424 | -6.69080 | 36050 ft | 459 kts | 204° |
| 2026-05-05 21:24 | 45.15559 | -6.72645 | 36056 ft | 458 kts | 205° |
| 2026-05-05 21:25 | 45.09698 | -6.76201 | 36055 ft | 458 kts | 205° |
| 2026-05-05 21:25 | 45.03845 | -6.79743 | 36057 ft | 458 kts | 205° |
| 2026-05-05 21:26 | 44.97991 | -6.83279 | 36054 ft | 457 kts | 205° |
| 2026-05-05 21:26 | 44.92144 | -6.86803 | 36055 ft | 457 kts | 205° |
| 2026-05-05 21:27 | 44.86303 | -6.90316 | 36054 ft | 456 kts | 205° |
| 2026-05-05 21:27 | 44.80408 | -6.93462 | 36066 ft | 457 kts | 199° |
| 2026-05-05 21:28 | 44.74282 | -6.95895 | 36055 ft | 458 kts | 198° |
| 2026-05-05 21:28 | 44.68140 | -6.98251 | 36063 ft | 457 kts | 198° |
| 2026-05-05 21:29 | 44.62011 | -7.00662 | 36071 ft | 457 kts | 198° |
| 2026-05-05 21:29 | 44.55893 | -7.03106 | 36061 ft | 458 kts | 198° |
| 2026-05-05 21:30 | 44.49770 | -7.05560 | 36070 ft | 458 kts | 198° |
| 2026-05-05 21:30 | 44.43642 | -7.08011 | 36078 ft | 458 kts | 198° |
| 2026-05-05 21:31 | 44.37509 | -7.10457 | 36068 ft | 458 kts | 199° |
| 2026-05-05 21:31 | 44.31375 | -7.12897 | 36070 ft | 458 kts | 199° |
| 2026-05-05 21:32 | 44.25242 | -7.15330 | 36073 ft | 458 kts | 199° |
| 2026-05-05 21:32 | 44.19104 | -7.17761 | 36062 ft | 458 kts | 199° |
| 2026-05-05 21:33 | 44.12969 | -7.20185 | 36076 ft | 458 kts | 199° |
| 2026-05-05 21:33 | 44.06844 | -7.22599 | 36060 ft | 458 kts | 199° |
| 2026-05-05 21:34 | 44.00720 | -7.25009 | 36076 ft | 457 kts | 199° |
| 2026-05-05 21:34 | 43.94602 | -7.27410 | 36079 ft | 457 kts | 199° |
| 2026-05-05 21:35 | 43.88487 | -7.29806 | 36086 ft | 456 kts | 199° |
| 2026-05-05 21:35 | 43.82419 | -7.32179 | 36089 ft | 456 kts | 199° |
| 2026-05-05 21:36 | 43.76275 | -7.34575 | 36084 ft | 456 kts | 199° |
| 2026-05-05 21:36 | 43.70216 | -7.36934 | 36088 ft | 455 kts | 199° |
| 2026-05-05 21:37 | 43.64119 | -7.39302 | 36097 ft | 455 kts | 199° |
| 2026-05-05 21:37 | 43.58025 | -7.41665 | 36071 ft | 455 kts | 200° |
| 2026-05-05 21:38 | 43.51945 | -7.44016 | 36086 ft | 453 kts | 200° |
| 2026-05-05 21:38 | 43.45874 | -7.46360 | 36098 ft | 453 kts | 200° |
| 2026-05-05 21:39 | 43.39813 | -7.48695 | 36096 ft | 452 kts | 200° |
| 2026-05-05 21:39 | 43.33769 | -7.51018 | 36095 ft | 450 kts | 200° |
| 2026-05-05 21:40 | 43.27750 | -7.53327 | 36093 ft | 449 kts | 200° |
| 2026-05-05 21:40 | 43.21736 | -7.55629 | 36102 ft | 448 kts | 200° |
| 2026-05-05 21:41 | 43.15725 | -7.57926 | 36099 ft | 448 kts | 200° |
| 2026-05-05 21:41 | 43.09721 | -7.60215 | 36096 ft | 448 kts | 200° |
| 2026-05-05 21:42 | 43.03719 | -7.62499 | 36100 ft | 447 kts | 199° |
| 2026-05-05 21:42 | 42.97723 | -7.64776 | 36110 ft | 447 kts | 199° |
| 2026-05-05 21:43 | 42.91741 | -7.67043 | 36100 ft | 446 kts | 200° |
| 2026-05-05 21:43 | 42.85763 | -7.69304 | 36098 ft | 445 kts | 200° |
| 2026-05-05 21:44 | 42.79847 | -7.71534 | 36021 ft | 434 kts | 200° |
| 2026-05-05 21:44 | 42.76950 | -7.72624 | 35706 ft | 428 kts | 200° |
| 2026-05-05 21:44 | 42.74139 | -7.73682 | 35348 ft | 423 kts | 200° |
| 2026-05-05 21:45 | 42.71321 | -7.74743 | 35061 ft | 418 kts | 200° |
| 2026-05-05 21:45 | 42.68530 | -7.75795 | 34678 ft | 415 kts | 200° |
| 2026-05-05 21:45 | 42.65755 | -7.76839 | 34319 ft | 412 kts | 200° |
| 2026-05-05 21:45 | 42.63003 | -7.77871 | 33937 ft | 410 kts | 200° |
| 2026-05-05 21:46 | 42.60263 | -7.78898 | 33542 ft | 406 kts | 200° |
| 2026-05-05 21:46 | 42.57553 | -7.79912 | 33226 ft | 402 kts | 200° |
| 2026-05-05 21:46 | 42.54865 | -7.80918 | 32863 ft | 399 kts | 200° |
| 2026-05-05 21:46 | 42.52202 | -7.81915 | 32510 ft | 396 kts | 200° |
| 2026-05-05 21:47 | 42.49557 | -7.82905 | 32142 ft | 393 kts | 200° |
| 2026-05-05 21:47 | 42.46930 | -7.83888 | 31790 ft | 390 kts | 200° |
| 2026-05-05 21:47 | 42.44322 | -7.84863 | 31443 ft | 388 kts | 200° |
| 2026-05-05 21:47 | 42.41728 | -7.85832 | 31102 ft | 385 kts | 201° |
| 2026-05-05 21:48 | 42.39154 | -7.86792 | 30770 ft | 383 kts | 201° |
| 2026-05-05 21:48 | 42.36593 | -7.87747 | 30425 ft | 381 kts | 201° |
| 2026-05-05 21:48 | 42.34046 | -7.88696 | 30056 ft | 379 kts | 201° |
| 2026-05-05 21:48 | 42.31512 | -7.89639 | 29662 ft | 376 kts | 201° |
| 2026-05-05 21:49 | 42.29007 | -7.90570 | 29332 ft | 373 kts | 201° |
| 2026-05-05 21:49 | 42.26515 | -7.91496 | 28944 ft | 370 kts | 201° |
| 2026-05-05 21:49 | 42.24045 | -7.92412 | 28601 ft | 367 kts | 201° |
| 2026-05-05 21:49 | 42.21596 | -7.93321 | 28266 ft | 363 kts | 201° |
| 2026-05-05 21:50 | 42.19165 | -7.94222 | 27906 ft | 361 kts | 201° |
| 2026-05-05 21:50 | 42.16748 | -7.95118 | 27561 ft | 359 kts | 201° |
| 2026-05-05 21:50 | 42.14348 | -7.96006 | 27229 ft | 356 kts | 201° |
| 2026-05-05 21:50 | 42.11968 | -7.96886 | 26882 ft | 354 kts | 201° |
| 2026-05-05 21:51 | 42.09603 | -7.97760 | 26560 ft | 351 kts | 201° |
| 2026-05-05 21:51 | 42.07255 | -7.98627 | 26246 ft | 349 kts | 201° |
| 2026-05-05 21:51 | 42.04920 | -7.99489 | 25918 ft | 347 kts | 201° |
| 2026-05-05 21:51 | 42.02597 | -8.00346 | 25584 ft | 345 kts | 201° |
| 2026-05-05 21:52 | 41.97985 | -8.02045 | 24920 ft | 342 kts | 201° |
| 2026-05-05 21:52 | 41.95693 | -8.02889 | 24599 ft | 341 kts | 201° |
| 2026-05-05 21:52 | 41.93406 | -8.03730 | 24271 ft | 340 kts | 201° |
| 2026-05-05 21:53 | 41.91135 | -8.04565 | 24124 ft | 336 kts | 201° |
| 2026-05-05 21:53 | 41.88896 | -8.05386 | 24028 ft | 332 kts | 201° |
| 2026-05-05 21:53 | 41.86644 | -8.06214 | 23518 ft | 339 kts | 201° |
| 2026-05-05 21:53 | 41.84358 | -8.07055 | 22987 ft | 343 kts | 201° |
| 2026-05-05 21:54 | 41.82200 | -8.08282 | 22528 ft | 332 kts | 222° |
| 2026-05-05 21:54 | 41.80605 | -8.10411 | 22213 ft | 318 kts | 241° |
| 2026-05-05 21:54 | 41.79511 | -8.12950 | 21903 ft | 313 kts | 247° |
| 2026-05-05 21:54 | 41.78507 | -8.15539 | 21514 ft | 313 kts | 248° |
| 2026-05-05 21:55 | 41.77518 | -8.18134 | 21197 ft | 312 kts | 248° |
| 2026-05-05 21:55 | 41.76531 | -8.20723 | 20873 ft | 311 kts | 248° |
| 2026-05-05 21:55 | 41.75557 | -8.23263 | 20559 ft | 310 kts | 248° |
| 2026-05-05 21:55 | 41.74570 | -8.25824 | 20260 ft | 309 kts | 247° |
| 2026-05-05 21:56 | 41.73580 | -8.28370 | 19926 ft | 308 kts | 247° |
| 2026-05-05 21:56 | 41.72590 | -8.30908 | 19637 ft | 307 kts | 247° |
| 2026-05-05 21:56 | 41.71603 | -8.33433 | 19318 ft | 306 kts | 247° |
| 2026-05-05 21:56 | 41.70617 | -8.35949 | 19013 ft | 305 kts | 247° |
| 2026-05-05 21:57 | 41.69633 | -8.38460 | 18710 ft | 304 kts | 247° |
| 2026-05-05 21:57 | 41.68650 | -8.40964 | 18402 ft | 304 kts | 247° |
| 2026-05-05 21:57 | 41.67667 | -8.43466 | 18059 ft | 303 kts | 247° |
| 2026-05-05 21:57 | 41.66688 | -8.45956 | 17757 ft | 302 kts | 247° |
| 2026-05-05 21:58 | 41.65715 | -8.48429 | 17428 ft | 300 kts | 247° |
| 2026-05-05 21:58 | 41.64743 | -8.50895 | 17126 ft | 298 kts | 247° |
| 2026-05-05 21:58 | 41.63780 | -8.53336 | 16826 ft | 297 kts | 246° |
| 2026-05-05 21:58 | 41.62819 | -8.55769 | 16530 ft | 295 kts | 246° |
| 2026-05-05 21:59 | 41.61862 | -8.58194 | 16231 ft | 294 kts | 246° |
| 2026-05-05 21:59 | 41.60908 | -8.60606 | 15935 ft | 293 kts | 246° |
| 2026-05-05 21:59 | 41.59959 | -8.63005 | 15633 ft | 291 kts | 246° |
| 2026-05-05 21:59 | 41.59013 | -8.65393 | 15344 ft | 290 kts | 246° |
| 2026-05-05 22:00 | 41.58071 | -8.67772 | 15057 ft | 289 kts | 246° |
| 2026-05-05 22:00 | 41.57131 | -8.70141 | 14762 ft | 288 kts | 246° |
| 2026-05-05 22:00 | 41.56194 | -8.72504 | 14470 ft | 288 kts | 246° |
| 2026-05-05 22:00 | 41.55259 | -8.74859 | 14189 ft | 287 kts | 246° |
| 2026-05-05 22:01 | 41.54327 | -8.77204 | 13905 ft | 286 kts | 246° |
| 2026-05-05 22:01 | 41.53394 | -8.79550 | 13585 ft | 286 kts | 245° |
| 2026-05-05 22:01 | 41.52461 | -8.81893 | 13268 ft | 285 kts | 245° |
| 2026-05-05 22:01 | 41.51530 | -8.84225 | 12969 ft | 284 kts | 245° |
| 2026-05-05 22:02 | 41.50374 | -8.86363 | 12650 ft | 289 kts | 222° |
| 2026-05-05 22:02 | 41.48577 | -8.87553 | 12410 ft | 292 kts | 193° |
| 2026-05-05 22:02 | 41.46559 | -8.87582 | 12155 ft | 292 kts | 172° |
| 2026-05-05 22:02 | 41.44566 | -8.87085 | 11887 ft | 291 kts | 169° |
| 2026-05-05 22:03 | 41.42590 | -8.86524 | 11604 ft | 290 kts | 169° |
| 2026-05-05 22:03 | 41.40620 | -8.85960 | 11329 ft | 289 kts | 169° |
| 2026-05-05 22:03 | 41.38656 | -8.85406 | 11051 ft | 289 kts | 169° |
| 2026-05-05 22:03 | 41.36691 | -8.84862 | 10781 ft | 288 kts | 169° |
| 2026-05-05 22:04 | 41.34729 | -8.84326 | 10495 ft | 288 kts | 169° |
| 2026-05-05 22:04 | 41.32770 | -8.83795 | 10254 ft | 286 kts | 169° |
| 2026-05-05 22:04 | 41.30843 | -8.83276 | 10106 ft | 281 kts | 169° |
| 2026-05-05 22:04 | 41.28926 | -8.82763 | 9814 ft | 281 kts | 169° |
| 2026-05-05 22:05 | 41.27015 | -8.82252 | 9543 ft | 280 kts | 169° |
| 2026-05-05 22:05 | 41.25111 | -8.81743 | 9269 ft | 279 kts | 169° |
| 2026-05-05 22:05 | 41.23209 | -8.81236 | 8996 ft | 278 kts | 169° |
| 2026-05-05 22:05 | 41.21339 | -8.80737 | 8708 ft | 277 kts | 169° |
| 2026-05-05 22:06 | 41.19449 | -8.80234 | 8473 ft | 277 kts | 169° |
| 2026-05-05 22:06 | 41.17560 | -8.79732 | 8198 ft | 277 kts | 169° |
| 2026-05-05 22:06 | 41.15676 | -8.79231 | 7929 ft | 276 kts | 169° |
| 2026-05-05 22:06 | 41.13795 | -8.78730 | 7672 ft | 275 kts | 169° |
| 2026-05-05 22:07 | 41.11920 | -8.78232 | 7407 ft | 275 kts | 169° |
| 2026-05-05 22:07 | 41.10049 | -8.77735 | 7144 ft | 274 kts | 169° |
| 2026-05-05 22:07 | 41.08808 | -8.77405 | 6963 ft | 274 kts | 169° |
| 2026-05-05 22:07 | 41.06949 | -8.76912 | 6707 ft | 272 kts | 169° |
| 2026-05-05 22:08 | 41.05111 | -8.76424 | 6439 ft | 267 kts | 169° |
| 2026-05-05 22:08 | 41.03307 | -8.75946 | 6199 ft | 260 kts | 169° |
| 2026-05-05 22:08 | 41.01570 | -8.75486 | 5987 ft | 249 kts | 169° |
| 2026-05-05 22:08 | 40.99889 | -8.75041 | 5778 ft | 243 kts | 169° |
| 2026-05-05 22:09 | 40.98318 | -8.74326 | 5602 ft | 237 kts | 143° |
| 2026-05-05 22:09 | 40.97327 | -8.72716 | 5469 ft | 219 kts | 107° |
| 2026-05-05 22:09 | 40.97029 | -8.70842 | 5386 ft | 202 kts | 85° |
| 2026-05-05 22:09 | 40.97196 | -8.69057 | 5314 ft | 193 kts | 73° |
| 2026-05-05 22:10 | 40.97461 | -8.67321 | 5267 ft | 192 kts | 73° |
| 2026-05-05 22:10 | 40.97730 | -8.65575 | 5200 ft | 196 kts | 73° |
| 2026-05-05 22:10 | 40.98011 | -8.63787 | 5069 ft | 201 kts | 70° |
| 2026-05-05 22:10 | 40.98701 | -8.62264 | 4834 ft | 190 kts | 32° |
| 2026-05-05 22:11 | 40.99882 | -8.61708 | 4619 ft | 179 kts | 1° |
| 2026-05-05 22:11 | 41.01105 | -8.61902 | 4369 ft | 176 kts | 347° |
| 2026-05-05 22:11 | 41.02295 | -8.62222 | 4165 ft | 174 kts | 348° |
| 2026-05-05 22:11 | 41.03479 | -8.62536 | 3948 ft | 174 kts | 348° |
| 2026-05-05 22:12 | 41.04676 | -8.62855 | 3759 ft | 177 kts | 348° |
| 2026-05-05 22:12 | 41.05890 | -8.63179 | 3568 ft | 179 kts | 348° |
| 2026-05-05 22:12 | 41.07110 | -8.63499 | 3354 ft | 178 kts | 348° |
| 2026-05-05 22:12 | 41.08319 | -8.63814 | 3156 ft | 176 kts | 348° |
| 2026-05-05 22:13 | 41.09521 | -8.64127 | 2938 ft | 176 kts | 348° |
| 2026-05-05 22:13 | 41.10726 | -8.64441 | 2701 ft | 175 kts | 348° |
| 2026-05-05 22:13 | 41.11906 | -8.64749 | 2469 ft | 171 kts | 348° |
| 2026-05-05 22:13 | 41.13041 | -8.65045 | 2246 ft | 160 kts | 348° |
| 2026-05-05 22:14 | 41.14108 | -8.65324 | 2062 ft | 154 kts | 348° |
| 2026-05-05 22:14 | 41.15153 | -8.65597 | 1850 ft | 152 kts | 348° |
| 2026-05-05 22:14 | 41.16198 | -8.65870 | 1664 ft | 155 kts | 348° |
| 2026-05-05 22:14 | 41.17259 | -8.66147 | 1457 ft | 154 kts | 348° |
| 2026-05-05 22:15 | 41.18281 | -8.66415 | 1237 ft | 145 kts | 348° |
| 2026-05-05 22:15 | 41.19242 | -8.66666 | 1091 ft | 133 kts | 348° |
| 2026-05-05 22:15 | 41.20156 | -8.66889 | 1049 ft | 136 kts | 348° |
| 2026-05-05 22:15 | 41.21093 | -8.67142 | 871 ft | 139 kts | 347° |
| 2026-05-05 22:16 | 41.22044 | -8.67391 | 663 ft | 141 kts | 348° |
| 2026-05-05 22:16 | 41.23018 | -8.67656 | 402 ft | 143 kts | 348° |
| 2026-05-05 22:16 | 41.23972 | -8.67910 | 252 ft | 132 kts | 348° |
| 2026-05-05 22:16 | 41.24748 | -8.68110 | 237 ft | 92 kts | 349° |
| 2026-05-05 22:17 | 41.25230 | -8.68235 | 217 ft | 49 kts | 349° |
| 2026-05-05 22:17 | 41.25414 | -8.68283 | 210 ft | 5 kts | 349° |
| 2026-05-05 22:17 | 41.25445 | -8.68291 | 215 ft | 10 kts | 349° |
| 2026-05-05 22:17 | 41.25542 | -8.68317 | 209 ft | 11 kts | 349° |
| 2026-05-05 22:18 | 41.25597 | -8.68250 | 213 ft | 14 kts | 74° |
| 2026-05-05 22:18 | 41.25601 | -8.68122 | 213 ft | 14 kts | 124° |
| 2026-05-05 22:18 | 41.25510 | -8.68079 | 207 ft | 14 kts | 168° |
| 2026-05-05 22:18 | 41.25418 | -8.68055 | 214 ft | 13 kts | 168° |
| 2026-05-05 22:19 | 41.25329 | -8.68031 | 213 ft | 13 kts | 168° |
| 2026-05-05 22:19 | 41.25243 | -8.68009 | 212 ft | 12 kts | 169° |
| 2026-05-05 22:19 | 41.25215 | -8.68002 | 212 ft | 0 kts | 169° |
| 2026-05-05 22:21 | 41.25213 | -8.68002 | 213 ft | 1 kts | 169° |
| 2026-05-05 22:22 | 41.25193 | -8.67996 | 213 ft | 5 kts | 169° |
| 2026-05-05 22:22 | 41.25149 | -8.67985 | 218 ft | 8 kts | 169° |
| 2026-05-05 22:22 | 41.25093 | -8.67970 | 221 ft | 8 kts | 168° |
| 2026-05-05 22:22 | 41.25038 | -8.67955 | 222 ft | 8 kts | 168° |
| 2026-05-05 22:23 | 41.24982 | -8.67941 | 225 ft | 9 kts | 169° |
| 2026-05-05 22:23 | 41.24903 | -8.67917 | 227 ft | 14 kts | 163° |
| 2026-05-05 22:23 | 41.24803 | -8.67855 | 232 ft | 16 kts | 153° |
| 2026-05-05 22:23 | 41.24698 | -8.67810 | 236 ft | 16 kts | 168° |
| 2026-05-05 22:24 | 41.24595 | -8.67783 | 238 ft | 15 kts | 169° |
| 2026-05-05 22:24 | 41.24495 | -8.67757 | 242 ft | 14 kts | 169° |
| 2026-05-05 22:24 | 41.24400 | -8.67733 | 243 ft | 13 kts | 169° |
| 2026-05-05 22:24 | 41.24316 | -8.67708 | 243 ft | 12 kts | 158° |
| 2026-05-05 22:25 | 41.24265 | -8.67640 | 244 ft | 10 kts | 127° |
| 2026-05-05 22:25 | 41.24217 | -8.67582 | 246 ft | 9 kts | 160° |
| 2026-05-05 22:25 | 41.24156 | -8.67563 | 248 ft | 9 kts | 167° |
| 2026-05-05 22:25 | 41.24098 | -8.67548 | 249 ft | 8 kts | 168° |
| 2026-05-05 22:26 | 41.24043 | -8.67533 | 250 ft | 8 kts | 168° |
| 2026-05-05 22:26 | 41.23990 | -8.67519 | 252 ft | 7 kts | 169° |
| 2026-05-05 22:26 | 41.23940 | -8.67507 | 254 ft | 7 kts | 169° |
| 2026-05-05 22:26 | 41.23893 | -8.67494 | 256 ft | 7 kts | 168° |
| 2026-05-05 22:27 | 41.23841 | -8.67479 | 256 ft | 8 kts | 170° |
| 2026-05-05 22:27 | 41.23778 | -8.67463 | 256 ft | 10 kts | 169° |
| 2026-05-05 22:27 | 41.23723 | -8.67422 | 257 ft | 9 kts | 104° |
| 2026-05-05 22:27 | 41.23735 | -8.67357 | 256 ft | 6 kts | 56° |
| 2026-05-05 22:28 | 41.23756 | -8.67327 | 256 ft | 3 kts | 47° |
| 2026-05-05 22:28 | 41.23764 | -8.67315 | 256 ft | 1 kts | 46° |
| 2026-05-05 22:28 | 41.23772 | -8.67304 | 256 ft | 2 kts | 46° |
| 2026-05-05 22:28 | 41.23773 | -8.67303 | 256 ft | 0 kts | 46° |